Station Historical Data
Daily Summary for July 21, 2017 Units:  English    Metric   Both
« Previous Day
Next Day »
Daily Weekly Monthly Yearly Custom
  High: Low: Average:
Temperature: 84.7 °F 68.7 °F 76.9 °F
Dew Point: 73.5 °F 61.9 °F 69.9 °F
Humidity: 94% 60% 80%
Wind Speed: 13.0mph 0.0mph 2.5mph
Wind Gust: 13.0mph - -
Wind- - WSW
Pressure: 29.92 in 29.88 in -
Precipitation: 0.00 in    
Historical Graphs
 
 
Tabular Data for July 21, 2017
Time Temperature Dew Point Pressure Wind Wind Speed Wind Gust Humidity Rainfall Rate (Hourly)
00:04 71.9 °F 69.8 °F 29.90 in SSW 1.0 mph 3.0 mph 93% 0.00 in
00:09 72.1 °F 70.0 °F 29.90 in SSW 1.0 mph 3.0 mph 93% 0.00 in
00:14 72.3 °F 70.2 °F 29.90 in SW 1.0 mph 4.0 mph 93% 0.00 in
00:19 72.4 °F 70.3 °F 29.90 in Calm   3.0 mph 93% 0.00 in
00:24 72.6 °F 70.5 °F 29.90 in SW 3.0 mph 6.0 mph 93% 0.00 in
00:29 72.7 °F 70.6 °F 29.90 in SW 4.0 mph 4.0 mph 93% 0.00 in
00:34 72.9 °F 70.8 °F 29.90 in SW 2.0 mph 5.0 mph 93% 0.00 in
00:39 72.9 °F 70.8 °F 29.90 in SW 1.0 mph 5.0 mph 93% 0.00 in
00:44 72.9 °F 70.8 °F 29.90 in WSW 1.0 mph 4.0 mph 93% 0.00 in
00:49 73.0 °F 70.9 °F 29.90 in West 2.0 mph 6.0 mph 93% 0.00 in
00:54 73.0 °F 70.9 °F 29.90 in WSW 3.0 mph 5.0 mph 93% 0.00 in
00:59 73.1 °F 71.0 °F 29.90 in WSW 3.0 mph 7.0 mph 93% 0.00 in
01:04 73.1 °F 71.0 °F 29.90 in WSW 3.0 mph 7.0 mph 93% 0.00 in
01:09 73.0 °F 70.9 °F 29.90 in WSW 2.0 mph 5.0 mph 93% 0.00 in
01:14 73.0 °F 70.9 °F 29.90 in WSW 1.0 mph 5.0 mph 93% 0.00 in
01:19 72.8 °F 70.7 °F 29.90 in SW 1.0 mph 5.0 mph 93% 0.00 in
01:24 72.8 °F 70.7 °F 29.90 in WSW 1.0 mph 5.0 mph 93% 0.00 in
01:29 72.8 °F 70.7 °F 29.90 in Calm   4.0 mph 93% 0.00 in
01:34 72.6 °F 70.5 °F 29.90 in WSW 1.0 mph 4.0 mph 93% 0.00 in
01:39 72.6 °F 70.5 °F 29.90 in Calm   2.0 mph 93% 0.00 in
01:44 72.4 °F 70.3 °F 29.90 in Calm     93% 0.00 in
01:49 72.4 °F 70.3 °F 29.90 in Calm   3.0 mph 93% 0.00 in
01:54 72.3 °F 70.2 °F 29.90 in SW 1.0 mph 4.0 mph 93% 0.00 in
01:59 72.3 °F 70.2 °F 29.90 in Calm   2.0 mph 93% 0.00 in
02:04 72.1 °F 70.0 °F 29.90 in Calm   3.0 mph 93% 0.00 in
02:09 72.1 °F 70.0 °F 29.90 in WSW 1.0 mph 3.0 mph 93% 0.00 in
02:14 71.9 °F 69.8 °F 29.90 in Calm   2.0 mph 93% 0.00 in
02:19 71.8 °F 69.3 °F 29.90 in Calm     92% 0.00 in
02:24 71.6 °F 69.2 °F 29.90 in Calm     92% 0.00 in
02:29 71.5 °F 69.4 °F 29.90 in Calm     93% 0.00 in
02:34 71.3 °F 69.2 °F 29.90 in Calm     93% 0.00 in
02:39 71.3 °F 69.2 °F 29.90 in Calm     93% 0.00 in
02:44 71.1 °F 69.0 °F 29.90 in Calm     93% 0.00 in
02:49 71.2 °F 69.1 °F 29.90 in Calm   4.0 mph 93% 0.00 in
02:54 71.4 °F 69.6 °F 29.90 in Calm   2.0 mph 94% 0.00 in
02:59 71.6 °F 69.5 °F 29.90 in Calm   2.0 mph 93% 0.00 in
03:04 71.9 °F 69.8 °F 29.90 in Calm     93% 0.00 in
03:09 72.0 °F 70.2 °F 29.90 in Calm   4.0 mph 94% 0.00 in
03:14 72.1 °F 70.0 °F 29.90 in Calm   4.0 mph 93% 0.00 in
03:19 72.0 °F 70.2 °F 29.90 in Calm     94% 0.00 in
03:24 71.9 °F 70.1 °F 29.90 in Calm     94% 0.00 in
03:29 72.1 °F 70.3 °F 29.89 in Calm   2.0 mph 94% 0.00 in
03:34 72.1 °F 70.3 °F 29.89 in Calm   2.0 mph 94% 0.00 in
03:39 72.0 °F 70.2 °F 29.89 in Calm     94% 0.00 in
03:44 71.8 °F 69.7 °F 29.89 in Calm     93% 0.00 in
03:49 71.9 °F 70.1 °F 29.89 in Calm     94% 0.00 in
03:54 72.0 °F 70.2 °F 29.89 in Calm     94% 0.00 in
03:59 72.2 °F 70.4 °F 29.89 in Calm   4.0 mph 94% 0.00 in
04:04 72.3 °F 70.5 °F 29.90 in Calm   3.0 mph 94% 0.00 in
04:09 72.2 °F 70.4 °F 29.90 in WSW 3.0 mph 3.0 mph 94% 0.00 in
04:14 72.2 °F 70.4 °F 29.90 in Calm   3.0 mph 94% 0.00 in
04:19 72.3 °F 70.5 °F 29.90 in Calm     94% 0.00 in
04:24 72.2 °F 70.4 °F 29.90 in Calm     94% 0.00 in
04:29 72.2 °F 70.4 °F 29.90 in Calm     94% 0.00 in
04:34 72.2 °F 70.4 °F 29.90 in Calm     94% 0.00 in
04:39 72.2 °F 70.4 °F 29.90 in Calm     94% 0.00 in
04:44 72.1 °F 70.3 °F 29.90 in Calm     94% 0.00 in
04:49 71.9 °F 70.1 °F 29.90 in Calm     94% 0.00 in
04:54 71.7 °F 69.6 °F 29.90 in Calm     93% 0.00 in
04:59 71.4 °F 69.6 °F 29.90 in Calm     94% 0.00 in
05:04 71.4 °F 69.6 °F 29.90 in Calm     94% 0.00 in
05:09 71.4 °F 69.6 °F 29.90 in Calm     94% 0.00 in
05:14 71.1 °F 69.3 °F 29.90 in Calm     94% 0.00 in
05:19 70.9 °F 69.1 °F 29.90 in Calm     94% 0.00 in
05:24 70.6 °F 68.8 °F 29.90 in Calm     94% 0.00 in
05:29 70.3 °F 68.2 °F 29.90 in Calm     93% 0.00 in
05:34 70.0 °F 68.2 °F 29.90 in Calm     94% 0.00 in
05:39 69.8 °F 68.0 °F 29.90 in Calm     94% 0.00 in
05:44 69.8 °F 68.0 °F 29.90 in Calm     94% 0.00 in
05:49 69.5 °F 67.7 °F 29.90 in Calm     94% 0.00 in
05:54 69.3 °F 67.5 °F 29.90 in Calm     94% 0.00 in
05:59 69.2 °F 67.4 °F 29.90 in Calm     94% 0.00 in
06:04 69.0 °F 67.2 °F 29.90 in Calm     94% 0.00 in
06:09 68.9 °F 67.1 °F 29.90 in Calm     94% 0.00 in
06:14 68.7 °F 66.9 °F 29.90 in Calm     94% 0.00 in
06:19 68.7 °F 66.9 °F 29.91 in Calm     94% 0.00 in
06:24 68.8 °F 67.0 °F 29.91 in Calm     94% 0.00 in
06:29 68.8 °F 67.0 °F 29.91 in Calm     94% 0.00 in
06:34 68.8 °F 67.0 °F 29.90 in Calm     94% 0.00 in
06:39 68.9 °F 67.1 °F 29.91 in Calm     94% 0.00 in
06:44 69.2 °F 67.4 °F 29.91 in Calm     94% 0.00 in
06:49 69.3 °F 67.5 °F 29.91 in Calm     94% 0.00 in
06:54 69.5 °F 67.7 °F 29.91 in Calm     94% 0.00 in
06:59 69.6 °F 67.5 °F 29.91 in Calm     93% 0.00 in
07:04 69.9 °F 68.1 °F 29.91 in Calm     94% 0.00 in
07:09 70.2 °F 68.1 °F 29.91 in Calm     93% 0.00 in
07:14 70.4 °F 68.3 °F 29.92 in Calm     93% 0.00 in
07:19 70.6 °F 68.5 °F 29.92 in Calm     93% 0.00 in
07:24 70.8 °F 68.4 °F 29.92 in Calm     92% 0.00 in
07:29 71.1 °F 68.7 °F 29.92 in Calm     92% 0.00 in
07:34 71.5 °F 69.1 °F 29.92 in Calm     92% 0.00 in
07:39 71.9 °F 69.4 °F 29.92 in Calm     92% 0.00 in
07:44 72.4 °F 69.6 °F 29.92 in Calm     91% 0.00 in
07:49 72.8 °F 69.7 °F 29.92 in SSE 1.0 mph 3.0 mph 90% 0.00 in
07:54 73.1 °F 69.7 °F 29.92 in SW 3.0 mph 4.0 mph 89% 0.00 in
07:59 73.4 °F 70.0 °F 29.92 in SSW 1.0 mph 4.0 mph 89% 0.00 in
08:04 73.9 °F 70.1 °F 29.92 in SSW 1.0 mph 4.0 mph 88% 0.00 in
08:09 74.6 °F 70.8 °F 29.92 in SW 2.0 mph 6.0 mph 88% 0.00 in
08:14 75.5 °F 71.7 °F 29.92 in SW 3.0 mph 8.0 mph 88% 0.00 in
08:19 75.8 °F 71.7 °F 29.92 in SW 3.0 mph 8.0 mph 87% 0.00 in
08:24 76.4 °F 72.2 °F 29.92 in SW 5.0 mph 7.0 mph 87% 0.00 in
08:34 76.6 °F 71.7 °F 29.92 in SSW 5.0 mph 9.0 mph 85% 0.00 in
08:39 77.0 °F 71.8 °F 29.92 in SW 4.0 mph 7.0 mph 84% 0.00 in
08:44 77.5 °F 72.3 °F 29.92 in West 3.0 mph 8.0 mph 84% 0.00 in
08:49 77.6 °F 71.7 °F 29.92 in WNW 7.0 mph 7.0 mph 82% 0.00 in
08:54 77.7 °F 71.8 °F 29.92 in WNW 2.0 mph 8.0 mph 82% 0.00 in
08:59 77.4 °F 71.5 °F 29.92 in West 3.0 mph 8.0 mph 82% 0.00 in
09:04 77.2 °F 71.6 °F 29.92 in West 3.0 mph 7.0 mph 83% 0.00 in
09:09 77.5 °F 71.6 °F 29.92 in WSW 4.0 mph 7.0 mph 82% 0.00 in
09:14 78.5 °F 72.2 °F 29.92 in WSW 4.0 mph 7.0 mph 81% 0.00 in
09:19 77.9 °F 71.6 °F 29.92 in SSW 3.0 mph 7.0 mph 81% 0.00 in
09:24 77.9 °F 71.6 °F 29.92 in WSW 3.0 mph 7.0 mph 81% 0.00 in
09:29 77.7 °F 71.0 °F 29.92 in WSW 4.0 mph 7.0 mph 80% 0.00 in
09:34 77.1 °F 70.8 °F 29.92 in SW 4.0 mph 9.0 mph 81% 0.00 in
09:39 77.0 °F 71.1 °F 29.92 in SW 4.0 mph 9.0 mph 82% 0.00 in
09:44 76.7 °F 70.8 °F 29.92 in WSW 4.0 mph 8.0 mph 82% 0.00 in
09:49 76.6 °F 71.0 °F 29.92 in SW 2.0 mph 7.0 mph 83% 0.00 in
09:54 77.3 °F 71.4 °F 29.92 in WSW 3.0 mph 7.0 mph 82% 0.00 in
09:59 77.8 °F 71.9 °F 29.92 in SW 4.0 mph 7.0 mph 82% 0.00 in
10:04 79.3 °F 73.0 °F 29.92 in SW 3.0 mph 7.0 mph 81% 0.00 in
10:09 80.0 °F 73.3 °F 29.92 in WSW 4.0 mph 8.0 mph 80% 0.00 in
10:14 79.9 °F 72.8 °F 29.92 in SW 6.0 mph 8.0 mph 79% 0.00 in
10:19 79.7 °F 72.2 °F 29.92 in WSW 5.0 mph 8.0 mph 78% 0.00 in
10:24 79.8 °F 72.7 °F 29.92 in SSW 4.0 mph 9.0 mph 79% 0.00 in
10:29 80.2 °F 72.7 °F 29.92 in SW 4.0 mph 9.0 mph 78% 0.00 in
10:34 80.1 °F 72.6 °F 29.92 in SW 4.0 mph 9.0 mph 78% 0.00 in
10:39 79.6 °F 72.1 °F 29.92 in WSW 4.0 mph 9.0 mph 78% 0.00 in
10:44 80.6 °F 73.5 °F 29.92 in WSW 4.0 mph 8.0 mph 79% 0.00 in
10:49 81.1 °F 72.4 °F 29.91 in SW 4.0 mph 9.0 mph 75% 0.00 in
10:54 80.7 °F 72.0 °F 29.92 in SW 4.0 mph 8.0 mph 75% 0.00 in
10:59 80.1 °F 72.2 °F 29.91 in SW 4.0 mph 8.0 mph 77% 0.00 in
11:05 80.5 °F 72.6 °F 29.91 in WSW 3.0 mph 9.0 mph 77% 0.00 in
11:10 80.6 °F 72.7 °F 29.91 in WSW 4.0 mph 9.0 mph 77% 0.00 in
11:15 80.5 °F 72.6 °F 29.92 in WSW 4.0 mph 9.0 mph 77% 0.00 in
11:20 81.1 °F 72.8 °F 29.92 in WSW 4.0 mph 8.0 mph 76% 0.00 in
11:25 81.5 °F 73.2 °F 29.92 in WSW 3.0 mph 8.0 mph 76% 0.00 in
11:30 81.4 °F 73.1 °F 29.91 in WSW 3.0 mph 8.0 mph 76% 0.00 in
11:35 81.0 °F 72.7 °F 29.91 in SSW 4.0 mph 8.0 mph 76% 0.00 in
11:40 81.3 °F 72.6 °F 29.91 in SW 4.0 mph 8.0 mph 75% 0.00 in
11:45 82.2 °F 73.1 °F 29.91 in WSW 4.0 mph 8.0 mph 74% 0.00 in
11:50 82.7 °F 72.3 °F 29.91 in West 4.0 mph 9.0 mph 71% 0.00 in
11:55 82.4 °F 72.5 °F 29.91 in West 5.0 mph 11.0 mph 72% 0.00 in
12:00 82.7 °F 72.7 °F 29.91 in West 4.0 mph 11.0 mph 72% 0.00 in
12:05 82.3 °F 73.2 °F 29.91 in West 3.0 mph 11.0 mph 74% 0.00 in
12:10 82.4 °F 72.9 °F 29.90 in WSW 4.0 mph 9.0 mph 73% 0.00 in
12:15 82.5 °F 73.0 °F 29.91 in SW 4.0 mph 9.0 mph 73% 0.00 in
12:20 82.7 °F 71.9 °F 29.90 in SW 5.0 mph 10.0 mph 70% 0.00 in
12:25 82.7 °F 73.2 °F 29.90 in SW 4.0 mph 10.0 mph 73% 0.00 in
12:30 82.3 °F 72.4 °F 29.90 in SW 4.0 mph 10.0 mph 72% 0.00 in
12:35 81.8 °F 71.9 °F 29.90 in West 5.0 mph 10.0 mph 72% 0.00 in
12:40 83.0 °F 73.0 °F 29.90 in WNW 4.0 mph 9.0 mph 72% 0.00 in
12:45 83.1 °F 73.5 °F 29.90 in WSW 4.0 mph 10.0 mph 73% 0.00 in
12:50 83.0 °F 73.4 °F 29.91 in SW 5.0 mph 10.0 mph 73% 0.00 in
12:55 82.3 °F 72.8 °F 29.90 in WSW 4.0 mph 10.0 mph 73% 0.00 in
13:00 81.7 °F 72.2 °F 29.90 in WSW 4.0 mph 9.0 mph 73% 0.00 in
13:05 82.1 °F 73.4 °F 29.90 in SW 5.0 mph 10.0 mph 75% 0.00 in
13:10 83.0 °F 72.6 °F 29.90 in WSW 5.0 mph 11.0 mph 71% 0.00 in
13:15 83.5 °F 73.1 °F 29.90 in WSW 6.0 mph 12.0 mph 71% 0.00 in
13:20 83.6 °F 72.8 °F 29.90 in WSW 4.0 mph 12.0 mph 70% 0.00 in
13:25 82.2 °F 72.3 °F 29.90 in WSW 4.0 mph 12.0 mph 72% 0.00 in
13:30 81.5 °F 72.0 °F 29.90 in WSW 5.0 mph 10.0 mph 73% 0.00 in
13:35 81.5 °F 69.5 °F 29.90 in SW 4.0 mph 10.0 mph 67% 0.00 in
13:40 81.7 °F 69.2 °F 29.90 in WSW 5.0 mph 10.0 mph 66% 0.00 in
13:45 81.7 °F 71.0 °F 29.90 in West 4.0 mph 10.0 mph 70% 0.00 in
13:50 81.9 °F 69.4 °F 29.90 in West 4.0 mph 8.0 mph 66% 0.00 in
13:55 81.9 °F 72.0 °F 29.90 in West 4.0 mph 9.0 mph 72% 0.00 in
14:00 83.0 °F 72.6 °F 29.90 in West 4.0 mph 9.0 mph 71% 0.00 in
14:05 83.9 °F 71.8 °F 29.90 in West 4.0 mph 9.0 mph 67% 0.00 in
14:10 83.8 °F 70.8 °F 29.90 in SW 5.0 mph 9.0 mph 65% 0.00 in
14:15 84.7 °F 71.2 °F 29.90 in WSW 5.0 mph 9.0 mph 64% 0.00 in
14:20 84.3 °F 71.2 °F 29.90 in WSW 5.0 mph 10.0 mph 65% 0.00 in
14:25 83.8 °F 71.7 °F 29.90 in SW 5.0 mph 10.0 mph 67% 0.00 in
14:30 83.1 °F 71.0 °F 29.90 in SW 3.0 mph 10.0 mph 67% 0.00 in
14:35 82.8 °F 71.2 °F 29.90 in WSW 3.0 mph 10.0 mph 68% 0.00 in
14:40 82.8 °F 72.0 °F 29.90 in WSW 4.0 mph 8.0 mph 70% 0.00 in
14:45 84.2 °F 72.9 °F 29.89 in SW 5.0 mph 8.0 mph 69% 0.00 in
14:50 84.0 °F 72.3 °F 29.89 in WSW 5.0 mph 10.0 mph 68% 0.00 in
14:55 84.0 °F 72.3 °F 29.89 in WSW 4.0 mph 10.0 mph 68% 0.00 in
15:00 83.8 °F 70.3 °F 29.89 in WSW 5.0 mph 10.0 mph 64% 0.00 in
15:05 83.6 °F 70.6 °F 29.89 in WSW 6.0 mph 10.0 mph 65% 0.00 in
15:10 83.8 °F 72.5 °F 29.90 in WSW 5.0 mph 10.0 mph 69% 0.00 in
15:15 84.2 °F 72.5 °F 29.90 in SW 5.0 mph 10.0 mph 68% 0.00 in
15:20 84.1 °F 70.1 °F 29.89 in WSW 5.0 mph 10.0 mph 63% 0.00 in
15:25 83.9 °F 70.4 °F 29.89 in SW 6.0 mph 10.0 mph 64% 0.00 in
15:30 84.1 °F 71.1 °F 29.89 in WSW 5.0 mph 11.0 mph 65% 0.00 in
15:35 83.8 °F 70.8 °F 29.89 in SW 6.0 mph 13.0 mph 65% 0.00 in
15:40 83.0 °F 70.0 °F 29.89 in SW 6.0 mph 13.0 mph 65% 0.00 in
15:55 83.5 °F 71.8 °F 29.88 in WSW 5.0 mph 13.0 mph 68% 0.00 in
16:00 83.9 °F 71.3 °F 29.89 in WSW 4.0 mph 9.0 mph 66% 0.00 in
16:05 84.3 °F 71.2 °F 29.89 in SW 6.0 mph 10.0 mph 65% 0.00 in
16:10 83.9 °F 71.3 °F 29.89 in SW 9.0 mph 12.0 mph 66% 0.00 in
16:15 83.5 °F 71.4 °F 29.89 in WSW 3.0 mph 12.0 mph 67% 0.00 in
16:20 83.7 °F 70.7 °F 29.88 in South 3.0 mph 10.0 mph 65% 0.00 in
16:25 83.5 °F 71.4 °F 29.88 in SW 6.0 mph 12.0 mph 67% 0.00 in
16:30 83.8 °F 72.1 °F 29.89 in SW 5.0 mph 12.0 mph 68% 0.00 in
16:35 84.1 °F 72.0 °F 29.89 in WSW 7.0 mph 8.0 mph 67% 0.00 in
16:40 83.8 °F 71.2 °F 29.88 in WSW 10.0 mph 13.0 mph 66% 0.00 in
16:45 83.3 °F 70.8 °F 29.88 in West 8.0 mph 13.0 mph 66% 0.00 in
16:50 83.3 °F 70.8 °F 29.88 in WSW 6.0 mph 13.0 mph 66% 0.00 in
16:55 83.8 °F 70.3 °F 29.89 in WSW 6.0 mph 13.0 mph 64% 0.00 in
17:00 83.9 °F 70.0 °F 29.89 in SW 13.0 mph 13.0 mph 63% 0.00 in
17:05 83.6 °F 70.1 °F 29.89 in WSW 6.0 mph 13.0 mph 64% 0.00 in
17:10 83.5 °F 70.0 °F 29.89 in WSW 6.0 mph 13.0 mph 64% 0.00 in
17:15 83.2 °F 69.3 °F 29.89 in WSW 6.0 mph 13.0 mph 63% 0.00 in
17:20 82.9 °F 69.5 °F 29.89 in SW 7.0 mph 13.0 mph 64% 0.00 in
17:25 83.0 °F 68.6 °F 29.89 in WSW 9.0 mph 12.0 mph 62% 0.00 in
17:30 82.7 °F 68.4 °F 29.89 in West 7.0 mph 11.0 mph 62% 0.00 in
17:35 82.6 °F 67.8 °F 29.89 in WSW 7.0 mph 12.0 mph 61% 0.00 in
17:40 82.7 °F 68.4 °F 29.88 in WSW 3.0 mph 11.0 mph 62% 0.00 in
17:45 82.7 °F 67.4 °F 29.88 in WSW 6.0 mph 10.0 mph 60% 0.00 in
17:50 82.5 °F 67.7 °F 29.88 in SW 4.0 mph 10.0 mph 61% 0.00 in
17:55 82.4 °F 67.6 °F 29.88 in WSW 5.0 mph 12.0 mph 61% 0.00 in
18:00 82.5 °F 67.7 °F 29.88 in WSW 5.0 mph 12.0 mph 61% 0.00 in
18:05 82.6 °F 67.8 °F 29.88 in WSW 5.0 mph 10.0 mph 61% 0.00 in
18:10 82.3 °F 67.5 °F 29.88 in WSW 5.0 mph 11.0 mph 61% 0.00 in
18:15 82.0 °F 67.7 °F 29.88 in WSW 5.0 mph 11.0 mph 62% 0.00 in
18:20 82.0 °F 68.2 °F 29.88 in SW 5.0 mph 12.0 mph 63% 0.00 in
18:25 82.1 °F 67.8 °F 29.88 in WSW 2.0 mph 11.0 mph 62% 0.00 in
18:30 81.8 °F 67.5 °F 29.88 in WSW 5.0 mph 11.0 mph 62% 0.00 in
18:35 81.7 °F 66.9 °F 29.88 in WSW 4.0 mph 13.0 mph 61% 0.00 in
18:40 81.5 °F 66.8 °F 29.88 in WSW 5.0 mph 12.0 mph 61% 0.00 in
18:45 81.2 °F 67.4 °F 29.88 in WSW 2.0 mph 11.0 mph 63% 0.00 in
18:50 81.0 °F 67.2 °F 29.88 in WSW 6.0 mph 12.0 mph 63% 0.00 in
18:55 80.9 °F 67.1 °F 29.88 in WSW 6.0 mph 12.0 mph 63% 0.00 in
19:00 80.7 °F 68.3 °F 29.88 in WSW 5.0 mph 10.0 mph 66% 0.00 in
19:05 80.4 °F 68.0 °F 29.88 in WSW 5.0 mph 12.0 mph 66% 0.00 in
19:10 80.3 °F 67.9 °F 29.88 in SW 4.0 mph 11.0 mph 66% 0.00 in
19:15 79.9 °F 68.8 °F 29.89 in WSW 6.0 mph 11.0 mph 69% 0.00 in
19:20 79.5 °F 68.9 °F 29.89 in WSW 2.0 mph 8.0 mph 70% 0.00 in
19:25 79.4 °F 68.8 °F 29.89 in WSW 5.0 mph 9.0 mph 70% 0.00 in
19:30 79.3 °F 68.7 °F 29.89 in West 6.0 mph 9.0 mph 70% 0.00 in
19:35 79.3 °F 69.1 °F 29.89 in WSW 3.0 mph 10.0 mph 71% 0.00 in
19:40 79.3 °F 68.7 °F 29.89 in West 3.0 mph 10.0 mph 70% 0.00 in
19:45 79.4 °F 68.3 °F 29.89 in WSW 4.0 mph 10.0 mph 69% 0.00 in
19:50 79.3 °F 68.7 °F 29.89 in WSW 3.0 mph 6.0 mph 70% 0.00 in
19:55 79.1 °F 69.3 °F 29.89 in WSW 2.0 mph 6.0 mph 72% 0.00 in
20:00 78.8 °F 69.4 °F 29.89 in SW 1.0 mph 5.0 mph 73% 0.00 in
20:05 78.7 °F 69.3 °F 29.89 in WSW 3.0 mph 5.0 mph 73% 0.00 in
20:10 78.4 °F 69.8 °F 29.89 in SW 1.0 mph 6.0 mph 75% 0.00 in
20:15 78.0 °F 69.8 °F 29.90 in SW 3.0 mph 6.0 mph 76% 0.00 in
20:20 77.8 °F 69.6 °F 29.90 in WSW 2.0 mph 6.0 mph 76% 0.00 in
20:25 77.8 °F 69.2 °F 29.90 in WNW 3.0 mph 7.0 mph 75% 0.00 in
20:30 77.6 °F 68.7 °F 29.90 in Calm   4.0 mph 74% 0.00 in
20:35 77.7 °F 68.4 °F 29.89 in Calm   8.0 mph 73% 0.00 in
20:40 77.5 °F 68.6 °F 29.89 in WSW 2.0 mph 8.0 mph 74% 0.00 in
20:45 77.5 °F 68.2 °F 29.89 in West 2.0 mph 5.0 mph 73% 0.00 in
20:50 77.4 °F 68.5 °F 29.89 in West 2.0 mph 6.0 mph 74% 0.00 in
20:55 77.2 °F 68.7 °F 29.89 in Calm   3.0 mph 75% 0.00 in
21:00 77.0 °F 68.5 °F 29.89 in West 1.0 mph 3.0 mph 75% 0.00 in
21:05 76.8 °F 68.3 °F 29.89 in WNW 1.0 mph 4.0 mph 75% 0.00 in
21:10 76.6 °F 68.5 °F 29.89 in WNW 1.0 mph 4.0 mph 76% 0.00 in
21:15 76.5 °F 68.4 °F 29.89 in WNW 1.0 mph 4.0 mph 76% 0.00 in
21:20 76.5 °F 68.7 °F 29.89 in WNW 1.0 mph 3.0 mph 77% 0.00 in
21:25 76.4 °F 68.7 °F 29.89 in Calm   3.0 mph 77% 0.00 in
21:30 76.4 °F 68.7 °F 29.89 in WNW 1.0 mph 3.0 mph 77% 0.00 in
21:35 76.3 °F 68.6 °F 29.89 in WNW 1.0 mph 2.0 mph 77% 0.00 in
21:40 76.2 °F 68.5 °F 29.89 in Calm   1.0 mph 77% 0.00 in
21:45 75.9 °F 68.5 °F 29.89 in Calm     78% 0.00 in
21:50 75.5 °F 68.5 °F 29.89 in Calm     79% 0.00 in
21:55 75.3 °F 68.3 °F 29.90 in Calm     79% 0.00 in
22:00 74.9 °F 68.3 °F 29.90 in Calm     80% 0.00 in
22:05 74.5 °F 68.3 °F 29.90 in Calm     81% 0.00 in
22:10 74.3 °F 68.1 °F 29.89 in Calm     81% 0.00 in
22:15 74.0 °F 68.2 °F 29.89 in Calm     82% 0.00 in
22:20 73.9 °F 68.4 °F 29.89 in Calm     83% 0.00 in
22:25 73.9 °F 68.4 °F 29.90 in Calm     83% 0.00 in
22:30 73.9 °F 68.4 °F 29.90 in Calm     83% 0.00 in
22:35 73.9 °F 68.1 °F 29.90 in Calm     82% 0.00 in
22:40 73.7 °F 67.9 °F 29.90 in Calm     82% 0.00 in
22:45 73.3 °F 67.8 °F 29.90 in Calm     83% 0.00 in
22:50 73.0 °F 67.5 °F 29.90 in Calm     83% 0.00 in
22:55 72.7 °F 67.6 °F 29.90 in Calm     84% 0.00 in
23:00 72.4 °F 67.3 °F 29.90 in Calm     84% 0.00 in
23:05 72.0 °F 67.2 °F 29.90 in Calm     85% 0.00 in
23:10 71.8 °F 67.0 °F 29.90 in Calm     85% 0.00 in
23:15 71.6 °F 67.2 °F 29.90 in Calm     86% 0.00 in
23:20 71.3 °F 66.6 °F 29.90 in Calm     85% 0.00 in
23:25 71.1 °F 66.7 °F 29.90 in Calm     86% 0.00 in
23:30 70.7 °F 66.3 °F 29.90 in Calm     86% 0.00 in
23:35 70.7 °F 66.3 °F 29.90 in Calm     86% 0.00 in
23:40 70.4 °F 65.7 °F 29.90 in Calm     85% 0.00 in
23:45 70.1 °F 64.7 °F 29.90 in Calm     83% 0.00 in
23:50 70.1 °F 62.9 °F 29.91 in Calm     78% 0.00 in
23:55 70.6 °F 61.9 °F 29.91 in Calm   3.0 mph 74% 0.00 in
Buffalo, New York, USA
Compliments of Weather Underground - 2.5 mb